Time;durP1;ratioP1;P1;durP2;ratioP2;P2;SDS_P1;SDS_P2;PMS_P1;PMS_P2;Temp;Humidity;BMP_temperature;BMP_pressure;BME280_temperature;BME280_humidity;BME280_pressure;Samples;Min_cycle;Max_cycle;Signal;HPM_P1;HPM_P2
2023/04/13 00:02:12;;;;;;;15.80;2.38;;;;;;;5.46;90.23;98707.91;4789713;29;20107;-96
2023/04/13 00:05:17;;;;;;;16.70;2.28;;;;;;;5.64;89.62;98721.28;4815065;29;20498;-96
2023/04/13 00:07:54;;;;;;;17.15;3.35;;;;;;;5.84;89.14;98728.47;4900520;29;20068;-96
2023/04/13 00:13:24;;;;;;;17.25;2.70;;;;;;;5.70;89.22;98705.50;4924382;29;20029;-96
2023/04/13 00:16:27;;;;;;;;;;;;;;;;;;;;;
2023/04/13 00:19:13;;;;;;;17.70;2.72;;;;;;;5.65;90.84;98723.72;4928359;29;20119;-96
2023/04/13 00:26:03;;;;;;;20.40;2.50;;;;;;;5.55;91.89;98712.44;4860997;29;20045;-96
2023/04/13 00:29:06;;;;;;;17.35;2.60;;;;;;;5.46;91.69;98729.22;4870957;29;20026;-96
2023/04/13 00:35:50;;;;;;;16.30;2.42;;;;;;;5.05;95.72;98724.97;4917942;29;20059;-96
2023/04/13 00:46:01;;;;;;;;;;;;;;;;;;;;;
2023/04/13 00:49:08;;;;;;;12.77;1.88;;;;;;;4.99;95.91;98779.03;4927048;29;20099;-96
2023/04/13 00:56:18;;;;;;;;;;;;;;;;;;;;;
2023/04/13 01:02:04;;;;;;;17.75;2.28;;;;;;;4.92;98.43;98795.66;4850906;29;20551;-96
2023/04/13 01:05:14;;;;;;;14.45;1.85;;;;;;;4.97;98.24;98798.75;4907230;29;20032;-96
2023/04/13 01:07:48;;;;;;;22.02;2.70;;;;;;;5.00;97.42;98793.47;4906773;29;20040;-96
2023/04/13 01:13:56;;;;;;;14.57;2.17;;;;;;;4.94;100.00;98786.97;4903890;29;20032;-96
2023/04/13 01:16:58;;;;;;;11.77;2.22;;;;;;;4.71;100.00;98760.25;4914678;29;20036;-96
2023/04/13 01:20:25;;;;;;;15.98;2.78;;;;;;;4.50;100.00;98774.31;4901125;29;20098;-96
2023/04/13 01:26:21;;;;;;;20.25;2.47;;;;;;;4.71;100.00;98777.34;4905130;29;20555;-96
2023/04/13 02:00:34;;;;;;;21.25;4.40;;;;;;;4.63;100.00;98849.34;4917769;29;20048;-96
2023/04/13 02:03:51;;;;;;;15.48;2.25;;;;;;;4.27;100.00;98819.91;4903702;29;20063;-96
2023/04/13 02:06:23;;;;;;;12.38;2.67;;;;;;;4.41;100.00;98831.88;4845272;29;20081;-96
2023/04/13 02:09:00;;;;;;;9.75;2.58;;;;;;;4.41;100.00;98851.47;4852170;29;20104;-96
2023/04/13 02:11:56;;;;;;;18.92;4.03;;;;;;;4.47;100.00;98862.19;4883271;29;20068;-95
2023/04/13 02:14:21;;;;;;;14.80;2.58;;;;;;;4.23;100.00;98843.16;4885686;29;20036;-95
2023/04/13 02:19:50;;;;;;;14.82;1.98;;;;;;;4.64;100.00;98857.84;4861288;29;20098;-95
2023/04/13 02:22:48;;;;;;;;;;;;;;;;;;;;;
2023/04/13 02:25:27;;;;;;;19.30;3.08;;;;;;;4.81;98.39;98869.63;4898715;29;20031;-96
2023/04/13 02:28:12;;;;;;;;;;;;;;;;;;;;;
2023/04/13 02:31:19;;;;;;;19.05;2.35;;;;;;;4.80;97.35;98862.84;4899016;29;20038;-96
2023/04/13 02:33:45;;;;;;;19.38;3.17;;;;;;;4.90;98.76;98885.25;4882774;29;20063;-96
2023/04/13 02:36:53;;;;;;;11.95;1.67;;;;;;;4.88;99.02;98878.59;4882164;29;20033;-96
2023/04/13 02:39:57;;;;;;;;;;;;;;;;;;;;;
2023/04/13 02:42:28;;;;;;;14.73;1.90;;;;;;;5.29;95.89;98885.50;4894335;29;20488;-96
2023/04/13 02:45:04;;;;;;;10.68;2.45;;;;;;;5.19;96.24;98885.22;4882055;29;20053;-96
2023/04/13 02:47:41;;;;;;;20.77;2.17;;;;;;;4.99;96.40;98865.97;4880990;29;20025;-96
2023/04/13 02:50:18;;;;;;;23.02;3.15;;;;;;;4.98;97.48;98872.00;4882686;29;20119;-96
2023/04/13 02:53:32;;;;;;;16.88;2.13;;;;;;;4.89;97.80;98908.34;4882534;29;20517;-96
2023/04/13 02:56:20;;;;;;;;;;;;;;;;;;;;;
2023/04/13 02:59:00;;;;;;;14.52;2.40;;;;;;;4.94;99.39;98880.75;4898455;29;20116;-96
2023/04/13 03:01:28;;;;;;;20.63;3.13;;;;;;;5.01;98.47;98897.38;4881873;29;20127;-96
2023/04/13 03:04:02;;;;;;;27.63;3.80;;;;;;;5.02;98.46;98896.47;4881597;29;20112;-96
2023/04/13 03:06:46;;;;;;;27.00;3.00;;;;;;;5.14;96.05;98885.53;4882322;29;20414;-96
2023/04/13 03:09:16;;;;;;;24.88;3.10;;;;;;;5.33;95.59;98889.50;4897982;29;20135;-96
2023/04/13 03:11:42;;;;;;;18.95;2.95;;;;;;;5.34;95.62;98902.22;4881627;29;20041;-96
2023/04/13 03:14:22;;;;;;;19.30;3.10;;;;;;;5.31;95.34;98891.34;4884226;29;20396;-96
2023/04/13 03:17:06;;;;;;;18.65;2.92;;;;;;;5.52;94.48;98923.31;4885655;29;20032;-96
2023/04/13 03:19:34;;;;;;;17.30;3.53;;;;;;;5.55;93.20;98920.53;4885038;29;20117;-95
2023/04/13 03:22:07;;;;;;;18.40;3.13;;;;;;;5.57;92.95;98931.53;4886363;29;20060;-96
2023/04/13 03:24:41;;;;;;;15.63;2.85;;;;;;;5.38;93.30;98925.06;4884951;29;20028;-96
2023/04/13 03:27:09;;;;;;;18.85;2.83;;;;;;;5.49;92.54;98943.97;4894126;29;20063;-95
2023/04/13 03:29:58;;;;;;;16.38;3.30;;;;;;;5.56;90.57;98924.78;4897021;29;20039;-95
2023/04/13 03:32:41;;;;;;;18.42;2.90;;;;;;;5.54;89.30;98921.47;4897780;29;20032;-96
2023/04/13 03:35:52;;;;;;;;;;;;;;;;;;;;;
2023/04/13 03:41:17;;;;;;;13.57;2.58;;;;;;;5.40;87.72;98941.97;4906618;29;20107;-96
2023/04/13 03:43:49;;;;;;;16.38;3.13;;;;;;;5.44;86.67;98956.22;4887692;29;20029;-96
2023/04/13 03:46:15;;;;;;;16.58;3.65;;;;;;;5.44;85.40;98925.50;4882847;29;20044;-95
2023/04/13 03:48:57;;;;;;;19.00;2.88;;;;;;;5.33;85.35;98950.91;4886238;29;20033;-96
2023/04/13 03:51:23;;;;;;;;;;;;;;;5.47;86.78;98966.25;4886515;29;20045;-95
2023/04/13 03:53:58;;;;;;;20.48;3.17;;;;;;;5.45;87.06;98969.84;4885072;29;19916;-96
2023/04/13 03:56:30;;;;;;;17.35;3.25;;;;;;;5.24;86.17;98941.22;4885805;29;20028;-96
2023/04/13 04:02:06;;;;;;;;;;;;;;;;;;;;;
2023/04/13 04:04:35;;;;;;;21.92;3.70;;;;;;;4.52;91.78;98955.63;4903570;29;20133;-96
2023/04/13 04:07:21;;;;;;;20.55;3.38;;;;;;;4.44;93.94;98956.88;4887423;29;20119;-96
2023/04/13 04:09:59;;;;;;;17.95;2.92;;;;;;;4.63;93.58;98963.50;4887221;29;20036;-96
2023/04/13 04:15:30;;;;;;;22.13;5.05;;;;;;;4.42;94.44;98993.66;4889264;29;20495;-96
2023/04/13 04:18:16;;;;;;;19.00;3.22;;;;;;;4.52;93.13;98965.84;4887071;29;20398;-96
2023/04/13 04:20:46;;;;;;;31.25;3.58;;;;;;;4.35;93.31;98961.69;4888297;29;20039;-96
2023/04/13 04:23:59;;;;;;;18.98;2.83;;;;;;;4.22;95.63;98995.56;4888737;29;20040;-96
2023/04/13 04:26:36;;;;;;;21.92;3.17;;;;;;;4.07;97.07;98965.72;4876566;29;20037;-96
2023/04/13 04:29:34;;;;;;;13.40;4.88;;;;;;;4.22;96.35;98985.34;4887484;29;20025;-96
2023/04/13 04:32:35;;;;;;;19.15;3.53;;;;;;;4.08;97.85;98987.81;4889242;29;20051;-96
2023/04/13 04:35:07;;;;;;;19.60;2.70;;;;;;;4.20;98.90;98971.84;4886298;29;20040;-96
2023/04/13 04:38:08;;;;;;;27.90;3.38;;;;;;;4.30;98.23;99002.81;4888238;29;20040;-96
2023/04/13 04:41:18;;;;;;;24.52;3.63;;;;;;;4.45;96.67;99003.69;4888319;29;20036;-96
2023/04/13 04:44:17;;;;;;;;;;;;;;;;;;;;;
2023/04/13 04:47:57;;;;;;;;;;;;;;;;;;;;;
2023/04/13 04:52:15;;;;;;;;;;;;;;;;;;;;;
2023/04/13 04:54:19;;;;;;;18.33;3.42;;;;;;;3.74;100.00;99025.34;4895990;29;20090;-96
2023/04/13 04:57:26;;;;;;;27.73;4.18;;;;;;;3.68;100.00;99004.41;4889769;29;20039;-96
2023/04/13 05:00:14;;;;;;;24.85;3.47;;;;;;;3.71;100.00;99000.00;4888077;29;20436;-96
2023/04/13 05:02:51;;;;;;;21.80;3.17;;;;;;;3.83;100.00;99004.44;4887885;29;20049;-96
2023/04/13 05:06:24;;;;;;;19.55;3.42;;;;;;;3.80;100.00;99022.47;4889303;29;20080;-96
2023/04/13 05:09:47;;;;;;;;;;;;;;;;;;;;;
2023/04/13 05:19:28;;;;;;;17.15;3.53;;;;;;;3.80;100.00;99024.19;4885172;29;20102;-96
2023/04/13 05:22:05;;;;;;;16.42;3.05;;;;;;;4.04;100.00;99037.38;4854558;29;20051;-96
2023/04/13 05:25:10;;;;;;;;;;;;;;;;;;;;;
2023/04/13 05:31:31;;;;;;;40.58;4.47;;;;;;;3.86;100.00;99054.50;4883318;29;20041;-96
2023/04/13 05:34:37;;;;;;;;;;;;;;;;;;;;;
2023/04/13 05:37:07;;;;;;;23.25;3.13;;;;;;;4.00;100.00;99041.00;4883289;29;20104;-96
2023/04/13 05:39:58;;;;;;;17.80;2.97;;;;;;;4.08;100.00;99034.59;4875062;29;20037;-96
2023/04/13 05:45:26;;;;;;;18.45;2.83;;;;;;;4.07;100.00;99045.72;4905095;29;20073;-97
2023/04/13 05:48:38;;;;;;;25.40;3.13;;;;;;;4.03;100.00;99043.41;4890262;29;20032;-96
2023/04/13 05:54:59;;;;;;;19.75;2.90;;;;;;;4.17;100.00;99048.63;4799608;29;19967;-96
2023/04/13 05:57:27;;;;;;;19.40;2.92;;;;;;;4.14;100.00;99046.19;4868963;29;20089;-96
2023/04/13 06:00:42;;;;;;;24.50;3.08;;;;;;;4.29;100.00;99042.84;4965033;23;20055;-96
2023/04/13 06:03:58;;;;;;;;;;;;;;;;;;;;;
2023/04/13 06:13:07;;;;;;;;;;;;;;;;;;;;;
2023/04/13 07:33:35;;;;;;;;;;;;;;;;;;;;;
2023/04/13 07:51:38;;;;;;;14.25;3.50;;;;;;;13.90;50.71;99151.69;4927102;27;20080;-96
2023/04/13 07:54:03;;;;;;;12.70;2.13;;;;;;;15.86;48.00;99149.47;4901967;29;20064;-96
2023/04/13 07:56:30;;;;;;;11.55;2.70;;;;;;;14.80;48.18;99160.56;4910325;29;20016;-96
2023/04/13 07:59:01;;;;;;;9.95;2.10;;;;;;;15.33;47.14;99157.19;4906364;29;20040;-96
2023/04/13 08:01:26;;;;;;;7.43;2.30;;;;;;;19.65;39.37;99156.41;4902587;29;20024;-95
2023/04/13 08:04:07;;;;;;;12.85;1.95;;;;;;;20.12;38.16;99169.38;5079520;23;20107;-96
2023/04/13 08:30:00;;;;;;;8.25;2.25;;;;;;;21.08;34.64;99212.91;4919032;29;20056;-96
2023/04/13 08:35:48;;;;;;;13.32;2.25;;;;;;;16.87;40.38;99193.84;4929951;29;20050;-95
2023/04/13 08:38:43;;;;;;;7.50;1.58;;;;;;;17.04;40.61;99184.28;4909782;29;20111;-96
2023/04/13 08:41:09;;;;;;;10.18;1.17;;;;;;;16.56;41.57;99201.41;4920142;29;20036;-96
2023/04/13 08:43:35;;;;;;;9.70;2.03;;;;;;;17.92;38.17;99192.31;4904493;29;20118;-96
2023/04/13 08:46:06;;;;;;;12.60;2.63;;;;;;;18.00;39.18;99188.06;4903759;29;20119;-96
2023/04/13 08:48:41;;;;;;;9.10;2.00;;;;;;;15.73;43.24;99194.91;4902403;29;20028;-96
2023/04/13 08:51:10;;;;;;;11.30;2.15;;;;;;;18.45;39.65;99197.06;4902842;29;20068;-96
2023/04/13 08:53:36;;;;;;;9.35;2.00;;;;;;;22.46;32.41;99207.31;4902500;29;20028;-96
2023/04/13 08:56:05;;;;;;;12.07;1.70;;;;;;;26.61;28.39;99220.56;4903015;29;20414;-96
2023/04/13 08:58:44;;;;;;;6.53;1.50;;;;;;;24.31;29.16;99222.56;4902634;29;20041;-96
2023/04/13 09:01:12;;;;;;;6.63;1.52;;;;;;;25.20;27.78;99215.69;4902362;29;20020;-96
2023/04/13 09:03:52;;;;;;;10.18;1.70;;;;;;;22.54;30.69;99215.88;4902785;29;20493;-96
2023/04/13 09:06:24;;;;;;;5.93;1.30;;;;;;;26.83;26.11;99242.88;4901963;29;20529;-96
2023/04/13 09:08:52;;;;;;;7.00;1.40;;;;;;;29.25;23.69;99255.22;4901884;29;20080;-96
2023/04/13 09:11:24;;;;;;;5.45;1.40;;;;;;;30.45;22.02;99249.59;4900905;29;20028;-96
2023/04/13 09:14:02;;;;;;;8.82;1.67;;;;;;;29.77;23.30;99262.19;4903273;29;20039;-96
2023/04/13 09:16:40;;;;;;;7.65;1.23;;;;;;;31.69;20.40;99249.78;4902733;29;20039;-96
2023/04/13 09:19:29;;;;;;;5.90;1.70;;;;;;;28.66;23.83;99251.97;4903415;29;20455;-96
2023/04/13 09:21:55;;;;;;;5.60;2.00;;;;;;;30.38;22.00;99238.31;4910445;29;20446;-96
2023/04/13 09:24:38;;;;;;;6.85;1.55;;;;;;;31.09;20.85;99252.47;4919114;29;20028;-96
2023/04/13 09:27:25;;;;;;;7.72;1.50;;;;;;;22.72;28.65;99222.41;4911136;29;20044;-96
2023/04/13 09:29:54;;;;;;;11.27;2.03;;;;;;;25.89;25.27;99229.00;4884131;29;20032;-96
2023/04/13 09:32:51;;;;;;;;;;;;;;;;;;;;;
2023/04/13 09:35:17;;;;;;;5.75;1.23;;;;;;;27.17;22.80;99253.03;4922246;29;20123;-96
2023/04/13 09:37:43;;;;;;;4.85;1.20;;;;;;;30.54;20.46;99272.06;4919175;29;20056;-96
2023/04/13 09:40:31;;;;;;;4.25;1.05;;;;;;;30.62;19.48;99238.88;4903011;29;20087;-96
2023/04/13 09:43:03;;;;;;;6.63;1.35;;;;;;;31.73;18.71;99264.22;4902887;29;20032;-96
2023/04/13 09:45:50;;;;;;;4.85;1.40;;;;;;;32.30;19.32;99266.19;4920248;29;20474;-96
2023/04/13 09:48:29;;;;;;;8.38;2.47;;;;;;;32.59;18.67;99274.63;4919444;29;20024;-96
2023/04/13 09:51:04;;;;;;;7.63;1.48;;;;;;;31.62;19.34;99274.00;4906225;29;20423;-96
2023/04/13 09:53:47;;;;;;;6.53;1.33;;;;;;;31.56;20.57;99257.16;4904009;29;20028;-96
2023/04/13 09:56:19;;;;;;;5.43;1.38;;;;;;;28.69;20.79;99235.56;4906104;29;20535;-96
2023/04/13 09:59:11;;;;;;;9.07;1.20;;;;;;;26.25;24.44;99225.59;4924889;29;20161;-96
2023/04/13 10:02:22;;;;;;;;;;;;;;;;;;;;;
2023/04/13 10:05:12;;;;;;;6.07;1.20;;;;;;;27.74;23.04;99288.66;4922225;29;20036;-96
2023/04/13 10:07:42;;;;;;;6.32;1.08;;;;;;;30.24;20.64;99273.28;4905380;29;20031;-96
2023/04/13 10:10:18;;;;;;;6.07;1.10;;;;;;;30.34;19.97;99266.50;4924772;29;20040;-96
2023/04/13 10:13:08;;;;;;;5.07;1.55;;;;;;;30.17;20.84;99256.66;4924140;29;20031;-96
2023/04/13 10:15:54;;;;;;;10.65;1.40;;;;;;;31.82;20.05;99278.69;4918006;29;20043;-96
2023/04/13 10:33:09;;;;;;;10.63;1.40;;;;;;;26.73;22.86;99282.31;4854346;29;20077;-96
2023/04/13 10:36:06;;;;;;;;;;;;;;;;;;;;;
2023/04/13 10:39:47;;;;;;;;;;;;;;;;;;;;;
2023/04/13 10:50:36;;;;;;;;;;;;;;;;;;;;;
2023/04/13 10:56:51;;;;;;;9.35;1.80;;;;;;;27.40;21.90;99215.19;4812693;29;20059;-96
2023/04/13 17:24:01;;;;;;;3.80;0.82;;;;;;;8.77;59.48;99409.91;892284;23;21759;-96
2023/04/13 17:26:56;;;;;;;6.75;0.73;;;;;;;8.52;60.12;99384.97;4883040;29;20064;-96
2023/04/13 17:42:18;;;;;;;7.25;0.88;;;;;;;8.25;62.70;99433.03;5826417;23;20121;-96
2023/04/13 18:22:48;;;;;;;6.85;1.15;;;;;;;6.64;74.39;99430.75;5046073;23;20086;-96
2023/04/13 18:47:48;;;;;;;5.05;0.70;;;;;;;6.38;80.14;99463.81;4936256;28;20510;-95
2023/04/13 18:53:02;;;;;;;10.88;0.85;;;;;;;6.12;80.78;99438.81;5421541;23;20084;-96
2023/04/13 18:55:32;;;;;;;7.53;0.88;;;;;;;5.96;81.11;99434.53;4907447;29;20032;-96
2023/04/13 18:57:57;;;;;;;6.13;0.95;;;;;;;6.11;80.27;99427.72;4902049;29;20044;-96
2023/04/13 19:00:23;;;;;;;5.90;0.68;;;;;;;6.00;81.03;99433.47;4909527;29;20020;-96
2023/04/13 19:02:51;;;;;;;11.45;1.60;;;;;;;5.88;80.67;99423.84;4924360;29;20052;-96
2023/04/13 19:05:17;;;;;;;3.58;1.52;;;;;;;5.68;81.81;99434.31;4920050;29;20028;-96
2023/04/13 19:07:52;;;;;;;10.25;1.42;;;;;;;5.58;83.50;99442.50;4904524;29;20034;-96
2023/04/13 19:10:18;;;;;;;4.97;1.10;;;;;;;5.25;85.38;99437.41;4903874;29;20088;-96
2023/04/13 19:13:23;;;;;;;;;;;;;;;;;;;;;
2023/04/13 19:16:04;;;;;;;10.05;1.17;;;;;;;5.47;85.46;99456.78;4925203;29;20538;-96
2023/04/13 19:18:30;;;;;;;7.20;0.75;;;;;;;5.49;84.68;99450.66;4899289;29;20035;-96
2023/04/13 19:20:56;;;;;;;6.72;1.70;;;;;;;5.34;85.48;99446.31;4907060;29;20079;-96
2023/04/13 19:23:21;;;;;;;7.65;1.05;;;;;;;5.08;86.07;99435.72;4929192;29;20059;-96
2023/04/13 19:25:55;;;;;;;7.37;0.70;;;;;;;4.86;88.90;99441.09;4930971;29;20021;-96
2023/04/13 19:28:24;;;;;;;8.10;2.05;;;;;;;4.92;90.70;99447.63;4920410;29;20121;-96
2023/04/13 19:33:37;;;;;;;7.50;1.10;;;;;;;4.74;91.41;99451.91;4924816;29;20059;-96
2023/04/13 19:36:04;;;;;;;3.92;0.73;;;;;;;4.78;90.89;99450.03;4906643;29;20028;-96
2023/04/13 19:39:21;;;;;;;5.47;0.80;;;;;;;4.85;91.93;99469.28;4911413;29;20071;-96
2023/04/13 19:41:59;;;;;;;7.13;0.80;;;;;;;4.55;94.20;99476.72;4854497;29;20520;-96
2023/04/13 19:44:37;;;;;;;5.05;0.68;;;;;;;4.24;95.89;99450.91;4872323;29;20050;-96
2023/04/13 19:47:05;;;;;;;4.13;0.80;;;;;;;4.16;96.84;99452.16;4912925;29;20044;-96
2023/04/13 19:49:33;;;;;;;3.20;0.75;;;;;;;4.37;96.42;99478.44;4914713;29;20063;-96
2023/04/13 19:52:06;;;;;;;7.93;0.95;;;;;;;4.09;96.90;99464.38;4932893;29;20024;-96
2023/04/13 19:54:45;;;;;;;5.00;0.77;;;;;;;3.98;98.09;99448.75;4919806;29;20047;-96
2023/04/13 19:57:12;;;;;;;4.78;1.00;;;;;;;3.82;99.97;99454.53;4934659;29;20020;-96
2023/04/13 19:59:41;;;;;;;6.65;1.17;;;;;;;3.84;100.00;99488.47;4911495;29;20040;-96
2023/04/13 20:02:11;;;;;;;3.13;0.68;;;;;;;3.86;100.00;99478.22;4913977;29;20044;-96
2023/04/13 20:04:39;;;;;;;3.90;1.17;;;;;;;3.75;100.00;99463.38;4906145;29;20040;-96
2023/04/13 20:07:08;;;;;;;5.35;1.08;;;;;;;3.75;100.00;99465.91;4911951;29;20168;-96
2023/04/13 20:09:33;;;;;;;5.10;0.98;;;;;;;3.55;100.00;99459.16;4907069;29;20024;-96
2023/04/13 20:12:04;;;;;;;6.82;1.80;;;;;;;3.51;100.00;99461.91;4903274;29;20122;-96
2023/04/13 20:14:33;;;;;;;6.82;1.00;;;;;;;3.54;100.00;99470.28;4905933;29;20028;-96
2023/04/13 20:16:58;;;;;;;5.13;0.90;;;;;;;3.41;100.00;99462.34;4906403;29;20031;-96
2023/04/13 20:19:24;;;;;;;5.10;0.70;;;;;;;3.55;100.00;99481.28;4901425;29;20025;-96
2023/04/13 20:21:53;;;;;;;5.07;0.90;;;;;;;3.41;100.00;99449.56;4919584;29;20027;-96
2023/04/13 20:24:19;;;;;;;3.42;0.70;;;;;;;3.42;100.00;99466.53;4923613;29;20032;-96
2023/04/13 20:26:48;;;;;;;8.10;1.02;;;;;;;3.44;100.00;99474.13;4906577;29;20024;-96
2023/04/13 20:29:20;;;;;;;6.65;0.90;;;;;;;3.31;100.00;99461.03;4907850;29;20024;-96
2023/04/13 20:31:46;;;;;;;2.47;0.73;;;;;;;3.19;100.00;99452.22;4886994;29;20075;-96
2023/04/13 20:34:14;;;;;;;1.23;0.52;;;;;;;3.39;100.00;99478.56;4903423;29;20036;-96
2023/04/13 20:36:43;;;;;;;5.15;0.60;;;;;;;3.37;100.00;99488.84;4906020;29;20067;-96
2023/04/13 20:39:12;;;;;;;7.88;0.90;;;;;;;3.12;100.00;99466.13;4906165;29;20032;-96
2023/04/13 20:41:38;;;;;;;4.75;0.88;;;;;;;3.14;100.00;99463.50;4919925;29;20036;-96
2023/04/13 20:44:03;;;;;;;2.83;0.95;;;;;;;3.28;100.00;99486.69;4894355;29;20059;-96
2023/04/13 20:46:40;;;;;;;12.95;1.20;;;;;;;3.03;100.00;99461.41;4898533;29;20025;-96
2023/04/13 20:49:10;;;;;;;2.35;0.70;;;;;;;3.12;100.00;99460.19;4885817;29;20024;-96
2023/04/13 20:51:36;;;;;;;4.35;0.93;;;;;;;3.28;100.00;99463.75;4890325;29;20084;-96
2023/04/13 20:54:04;;;;;;;11.98;1.15;;;;;;;3.27;100.00;99458.69;4901255;29;20028;-96
2023/04/13 20:56:29;;;;;;;3.50;0.55;;;;;;;3.28;100.00;99471.38;4903391;29;20075;-96
2023/04/13 20:58:56;;;;;;;2.03;0.40;;;;;;;3.25;100.00;99471.53;4902533;29;20025;-96
2023/04/13 21:01:25;;;;;;;3.20;0.50;;;;;;;3.18;100.00;99465.03;4904375;29;20036;-96
2023/04/13 21:03:51;;;;;;;7.43;1.08;;;;;;;3.28;100.00;99475.66;4903874;29;20054;-95
2023/04/13 21:06:17;;;;;;;6.30;1.63;;;;;;;3.17;100.00;99453.16;4902128;29;20071;-95
2023/04/13 21:08:42;;;;;;;6.63;0.98;;;;;;;3.31;100.00;99476.34;4903335;29;20360;-95
2023/04/13 21:11:08;;;;;;;3.85;0.57;;;;;;;3.25;100.00;99466.44;4904783;29;20028;-96
2023/04/13 21:13:33;;;;;;;5.05;0.77;;;;;;;3.12;100.00;99455.94;4905571;29;20028;-94
2023/04/13 21:15:59;;;;;;;3.53;0.88;;;;;;;3.24;100.00;99459.66;4904739;29;20164;-96
2023/04/13 21:18:24;;;;;;;6.70;0.98;;;;;;;3.13;100.00;99446.56;4904322;29;20164;-96
2023/04/13 21:20:50;;;;;;;3.67;0.75;;;;;;;3.03;100.00;99441.03;4903227;29;20032;-95
2023/04/13 21:23:16;;;;;;;5.22;0.80;;;;;;;3.09;100.00;99450.13;4902739;29;20125;-96
2023/04/13 21:25:43;;;;;;;1.80;0.55;;;;;;;3.11;100.00;99451.72;4903321;29;20080;-94
2023/04/13 21:28:08;;;;;;;3.05;1.13;;;;;;;3.18;100.00;99449.72;4903050;29;20032;-94
2023/04/13 21:30:34;;;;;;;4.57;0.63;;;;;;;3.08;100.00;99443.38;4903516;29;20483;-95
2023/04/13 21:33:02;;;;;;;5.90;1.35;;;;;;;3.05;100.00;99443.50;4902756;29;20043;-96
2023/04/13 21:35:28;;;;;;;5.45;0.70;;;;;;;3.25;100.00;99458.78;4894596;29;20573;-95
2023/04/13 21:37:53;;;;;;;5.82;0.55;;;;;;;2.99;100.00;99434.38;4902595;29;20039;-95
2023/04/13 21:40:22;;;;;;;2.40;0.70;;;;;;;3.14;100.00;99466.03;4901323;29;20474;-96
2023/04/13 21:42:47;;;;;;;3.50;0.50;;;;;;;2.96;100.00;99445.53;4897367;29;20032;-96
2023/04/13 21:45:13;;;;;;;1.25;0.93;;;;;;;2.99;100.00;99442.84;4890583;29;20479;-95
2023/04/13 21:47:38;;;;;;;3.95;0.70;;;;;;;2.96;100.00;99440.44;4924964;29;20089;-95
2023/04/13 21:50:05;;;;;;;2.33;0.60;;;;;;;2.85;100.00;99426.50;4901395;29;20028;-95
2023/04/13 21:52:30;;;;;;;2.00;0.68;;;;;;;3.08;100.00;99430.63;4898961;29;20040;-96
2023/04/13 21:54:58;;;;;;;4.15;0.70;;;;;;;3.18;100.00;99432.72;4888899;29;20033;-95
2023/04/13 21:57:24;;;;;;;1.60;0.95;;;;;;;3.09;100.00;99425.44;4901962;29;20020;-95
2023/04/13 21:59:53;;;;;;;4.53;0.98;;;;;;;3.08;100.00;99423.81;4903029;29;20055;-95
2023/04/13 22:02:18;;;;;;;6.45;1.77;;;;;;;3.07;100.00;99418.75;4918044;29;20069;-96
2023/04/13 22:04:44;;;;;;;8.85;1.17;;;;;;;3.14;100.00;99445.66;4898130;29;20062;-95
2023/04/13 22:07:09;;;;;;;4.47;1.50;;;;;;;3.02;100.00;99424.06;4899416;29;20450;-96
2023/04/13 22:09:35;;;;;;;3.63;1.15;;;;;;;3.16;100.00;99437.03;4888023;29;20504;-96
2023/04/13 22:12:11;;;;;;;6.65;1.27;;;;;;;2.99;100.00;99409.72;4899742;29;20024;-96
2023/04/13 22:14:36;;;;;;;4.57;1.10;;;;;;;2.96;100.00;99425.16;4901833;29;20036;-96
2023/04/13 22:17:11;;;;;;;4.97;1.50;;;;;;;3.10;100.00;99431.41;4919309;29;20501;-96
2023/04/13 22:19:36;;;;;;;6.90;1.13;;;;;;;2.94;100.00;99426.13;4901372;29;20028;-96
2023/04/13 22:22:02;;;;;;;4.10;1.10;;;;;;;2.74;100.00;99404.84;4885505;29;20036;-96
2023/04/13 22:24:27;;;;;;;3.13;1.27;;;;;;;2.85;100.00;99427.31;4883587;29;20060;-95
2023/04/13 22:26:53;;;;;;;5.82;1.25;;;;;;;2.71;100.00;99406.72;4897742;29;20024;-95
2023/04/13 22:29:18;;;;;;;4.55;1.27;;;;;;;2.65;100.00;99412.03;4900753;29;20030;-96
2023/04/13 22:31:43;;;;;;;4.43;1.20;;;;;;;2.59;100.00;99400.41;4900813;29;20033;-96
2023/04/13 22:34:10;;;;;;;5.40;1.40;;;;;;;2.48;100.00;99393.19;4901933;29;20024;-95
2023/04/13 22:36:35;;;;;;;3.47;1.00;;;;;;;2.70;100.00;99408.41;4902508;29;20032;-95
2023/04/13 22:39:00;;;;;;;6.60;1.10;;;;;;;2.68;100.00;99401.72;4882201;29;20039;-96
2023/04/13 22:41:26;;;;;;;4.97;1.33;;;;;;;2.58;100.00;99383.44;4896432;29;20032;-96
2023/04/13 22:43:51;;;;;;;3.85;1.15;;;;;;;2.63;100.00;99407.00;4917721;29;20028;-96
2023/04/13 22:46:23;;;;;;;4.72;1.00;;;;;;;2.63;100.00;99388.34;4917932;29;20461;-96
2023/04/13 22:48:49;;;;;;;8.90;1.48;;;;;;;2.51;100.00;99372.69;4919989;29;20028;-96
2023/04/13 22:51:15;;;;;;;6.18;1.80;;;;;;;2.56;100.00;99370.78;4903254;29;20122;-96
2023/04/13 22:53:40;;;;;;;7.07;1.35;;;;;;;2.58;100.00;99368.16;4902220;29;20040;-96
2023/04/13 22:56:06;;;;;;;8.95;1.45;;;;;;;2.65;100.00;99389.94;4917160;29;20109;-96
2023/04/13 22:58:34;;;;;;;4.53;1.35;;;;;;;2.47;100.00;99366.06;4901322;29;20087;-96
2023/04/13 23:01:01;;;;;;;3.78;1.20;;;;;;;2.49;100.00;99371.09;4901439;29;20028;-96
2023/04/13 23:03:29;;;;;;;5.78;1.50;;;;;;;2.50;100.00;99360.84;4902272;29;20028;-96
2023/04/13 23:05:55;;;;;;;4.30;1.33;;;;;;;2.53;100.00;99364.97;4901493;29;20028;-96
2023/04/13 23:08:23;;;;;;;7.68;1.58;;;;;;;2.51;100.00;99367.59;4902347;29;20553;-96
2023/04/13 23:10:52;;;;;;;7.28;1.30;;;;;;;2.66;100.00;99380.56;4902171;29;20033;-96
2023/04/13 23:13:18;;;;;;;4.30;1.30;;;;;;;2.66;100.00;99385.66;4917335;29;20060;-96
2023/04/13 23:15:45;;;;;;;3.75;1.38;;;;;;;2.67;100.00;99377.97;4901586;29;20039;-96
2023/04/13 23:18:11;;;;;;;8.75;1.60;;;;;;;2.63;100.00;99370.50;4903769;29;20055;-96
2023/04/13 23:20:40;;;;;;;6.30;1.73;;;;;;;2.59;100.00;99358.81;4904868;29;20047;-96
2023/04/13 23:23:11;;;;;;;7.93;1.90;;;;;;;2.96;100.00;99373.34;4916632;29;20087;-96
2023/04/13 23:25:39;;;;;;;5.03;1.70;;;;;;;2.84;100.00;99358.59;4917749;29;20035;-96
2023/04/13 23:28:08;;;;;;;6.78;1.23;;;;;;;3.08;100.00;99383.00;4917199;29;20036;-96
2023/04/13 23:30:36;;;;;;;8.90;1.75;;;;;;;2.97;100.00;99355.44;4903444;29;20486;-96
2023/04/13 23:33:12;;;;;;;6.32;1.60;;;;;;;2.96;100.00;99345.31;4906638;29;20032;-96
2023/04/13 23:35:38;;;;;;;6.60;1.20;;;;;;;3.21;100.00;99347.59;4921721;29;20043;-96
2023/04/13 23:38:06;;;;;;;13.02;2.00;;;;;;;3.30;100.00;99352.28;4905671;29;20032;-96
2023/04/13 23:40:40;;;;;;;7.18;2.65;;;;;;;3.24;100.00;99352.56;4905561;29;20028;-96
2023/04/13 23:43:06;;;;;;;5.18;1.58;;;;;;;3.15;100.00;99353.00;4922122;29;20080;-95
2023/04/13 23:45:32;;;;;;;5.63;1.25;;;;;;;2.97;100.00;99345.22;4922238;29;20439;-96
2023/04/13 23:47:57;;;;;;;5.20;1.40;;;;;;;2.90;100.00;99338.78;4905523;29;20043;-96
2023/04/13 23:50:23;;;;;;;10.00;2.95;;;;;;;2.88;100.00;99334.59;4920577;29;20068;-96
2023/04/13 23:52:49;;;;;;;12.57;2.13;;;;;;;2.89;100.00;99352.41;4904683;29;20040;-96
2023/04/13 23:55:17;;;;;;;5.20;1.20;;;;;;;2.74;100.00;99337.78;4905854;29;20032;-96
2023/04/13 23:57:43;;;;;;;3.97;1.60;;;;;;;2.84;100.00;99351.78;4919994;29;20111;-96
